Time;durP1;ratioP1;P1;durP2;ratioP2;P2;SDS_P1;SDS_P2;PMS_P1;PMS_P2;Temp;Humidity;BMP_temperature;BMP_pressure;BME280_temperature;BME280_humidity;BME280_pressure;Samples;Min_cycle;Max_cycle;Signal;HPM_P1;HPM_P2
2023/01/15 00:02:23;;;;;;;14.88;13.48;;;;;;;5.28;66.74;95339.88;5088656;28;20204;-71
2023/01/15 00:04:54;;;;;;;15.52;13.98;;;;;;;5.22;67.37;95339.19;5105465;28;20285;-72
2023/01/15 00:07:23;;;;;;;14.95;13.55;;;;;;;5.23;67.09;95338.09;5088510;28;20212;-70
2023/01/15 00:09:51;;;;;;;14.27;12.93;;;;;;;5.24;66.97;95339.72;5105725;28;20208;-70
2023/01/15 00:12:19;;;;;;;14.48;13.13;;;;;;;5.25;67.10;95338.56;5087611;28;20211;-71
2023/01/15 00:14:47;;;;;;;14.32;12.93;;;;;;;5.26;66.81;95339.38;5088062;28;20200;-70
2023/01/15 00:17:18;;;;;;;14.68;13.27;;;;;;;5.26;67.15;95336.66;5087181;28;20216;-70
2023/01/15 00:19:46;;;;;;;13.57;12.38;;;;;;;5.26;67.06;95342.91;5086843;28;20612;-70
2023/01/15 00:22:15;;;;;;;14.38;13.02;;;;;;;5.26;67.00;95337.44;5081761;28;20617;-72
2023/01/15 00:27:44;;;;;;;14.80;13.40;;;;;;;5.20;66.92;95340.66;5079789;28;20189;-71
2023/01/15 00:30:14;;;;;;;15.73;14.23;;;;;;;5.23;66.94;95337.28;5079238;28;20223;-72
2023/01/15 00:32:43;;;;;;;15.50;13.95;;;;;;;5.21;67.32;95339.53;5079499;28;20193;-71
2023/01/15 00:35:13;;;;;;;15.45;13.95;;;;;;;5.21;66.88;95334.06;5079098;28;20196;-71
2023/01/15 00:37:42;;;;;;;15.82;14.25;;;;;;;5.21;66.68;95332.13;5079259;28;20207;-71
2023/01/15 00:40:12;;;;;;;15.90;14.40;;;;;;;5.21;66.94;95331.31;5079082;28;20196;-72
2023/01/15 00:42:38;;;;;;;15.05;13.65;;;;;;;5.16;67.18;95336.94;5079033;28;20211;-71
2023/01/15 00:45:09;;;;;;;14.55;13.23;;;;;;;5.15;67.09;95335.28;5079253;28;20193;-71
2023/01/15 00:47:37;;;;;;;14.93;13.55;;;;;;;5.19;67.30;95319.88;5079073;28;20215;-71
2023/01/15 00:50:06;;;;;;;14.25;12.95;;;;;;;5.22;67.30;95313.78;5079215;28;20224;-71
2023/01/15 00:52:34;;;;;;;14.30;13.00;;;;;;;5.22;67.67;95332.94;5079230;28;20196;-71
2023/01/15 00:55:02;;;;;;;14.40;13.10;;;;;;;5.22;67.32;95324.72;5079079;28;20632;-71
2023/01/15 00:57:30;;;;;;;13.95;12.65;;;;;;;5.20;67.49;95333.25;5078141;28;20240;-70
2023/01/15 00:59:58;;;;;;;13.90;12.65;;;;;;;5.17;67.21;95328.41;5078912;28;20204;-71
2023/01/15 01:02:26;;;;;;;14.23;12.93;;;;;;;5.13;67.45;95330.16;5078919;28;20204;-71
2023/01/15 01:04:53;;;;;;;14.57;13.18;;;;;;;5.15;67.12;95335.28;5096589;28;20192;-70
2023/01/15 01:07:21;;;;;;;13.82;12.43;;;;;;;5.14;67.67;95336.41;5079751;28;20211;-70
2023/01/15 01:09:49;;;;;;;15.48;13.98;;;;;;;5.17;67.45;95333.06;5078647;28;20223;-71
2023/01/15 01:12:20;;;;;;;14.43;13.02;;;;;;;5.17;67.19;95322.94;5079126;28;20220;-70
2023/01/15 01:14:48;;;;;;;14.88;13.50;;;;;;;5.18;67.07;95326.47;5083040;28;20200;-70
2023/01/15 01:17:18;;;;;;;14.75;13.35;;;;;;;5.11;67.64;95320.63;5079915;28;20207;-71
2023/01/15 01:19:46;;;;;;;15.00;13.50;;;;;;;5.07;67.43;95323.97;5079105;28;20197;-71
2023/01/15 01:22:14;;;;;;;13.95;12.65;;;;;;;5.08;67.50;95322.06;5079915;28;20230;-72
2023/01/15 01:24:43;;;;;;;14.68;13.38;;;;;;;5.09;67.48;95320.16;5097130;28;20215;-71
2023/01/15 01:27:09;;;;;;;14.93;13.60;;;;;;;5.10;67.66;95319.03;5096561;28;20189;-71
2023/01/15 01:29:39;;;;;;;13.88;12.57;;;;;;;5.05;67.67;95322.69;5097045;28;20231;-71
2023/01/15 01:32:07;;;;;;;14.82;13.43;;;;;;;5.01;68.04;95321.69;5096615;28;20200;-72
2023/01/15 01:34:37;;;;;;;15.38;13.88;;;;;;;5.00;68.17;95315.41;5078552;28;20200;-71
2023/01/15 01:37:08;;;;;;;14.25;12.93;;;;;;;5.04;68.32;95324.59;5078228;28;20197;-71
2023/01/15 01:39:36;;;;;;;14.57;13.27;;;;;;;5.06;68.66;95330.59;5077798;28;20208;-71
2023/01/15 01:42:04;;;;;;;15.80;14.38;;;;;;;5.09;68.07;95323.69;5079458;28;20197;-72
2023/01/15 01:45:11;;;;;;;15.23;13.82;;;;;;;5.09;68.25;95314.69;5080536;28;20583;-72
2023/01/15 01:47:38;;;;;;;15.05;13.55;;;;;;;5.10;67.67;95321.75;5071653;28;20620;-72
2023/01/15 01:50:13;;;;;;;15.63;14.23;;;;;;;5.03;68.38;95320.25;5079292;28;20216;-72
2023/01/15 01:52:44;;;;;;;15.32;13.82;;;;;;;5.05;68.39;95319.97;5071474;28;20208;-71
2023/01/15 01:55:14;;;;;;;15.80;14.25;;;;;;;5.06;68.32;95322.38;5079242;28;20204;-71
2023/01/15 01:57:43;;;;;;;16.25;14.65;;;;;;;5.06;68.54;95322.38;5079181;28;20239;-70
2023/01/15 02:00:17;;;;;;;16.55;15.05;;;;;;;5.08;68.44;95316.59;5079858;28;20192;-71
2023/01/15 02:02:47;;;;;;;15.68;14.15;;;;;;;5.06;68.14;95316.91;5079669;28;20204;-71
2023/01/15 02:05:17;;;;;;;14.98;13.57;;;;;;;5.03;68.18;95317.53;5079750;28;20211;-71
2023/01/15 02:07:44;;;;;;;14.45;13.07;;;;;;;5.06;67.97;95319.66;5097932;28;20192;-71
2023/01/15 02:10:18;;;;;;;14.52;13.23;;;;;;;5.10;68.05;95305.34;5096093;28;20581;-71
2023/01/15 02:12:50;;;;;;;15.38;13.98;;;;;;;5.08;68.17;95302.91;5098024;28;20219;-71
2023/01/15 02:15:28;;;;;;;15.07;13.75;;;;;;;5.05;67.88;95309.03;5097791;28;20189;-71
2023/01/15 02:18:03;;;;;;;15.45;13.95;;;;;;;5.00;67.97;95309.94;5096442;28;20666;-71
2023/01/15 02:20:33;;;;;;;14.98;13.57;;;;;;;5.04;68.21;95308.19;5077477;28;20207;-71
2023/01/15 02:23:29;;;;;;;15.70;14.10;;;;;;;5.00;68.17;95307.22;5077653;28;20205;-71
2023/01/15 02:26:06;;;;;;;15.43;13.93;;;;;;;5.06;67.90;95305.16;5040650;28;20200;-72
2023/01/15 02:28:36;;;;;;;14.80;13.40;;;;;;;5.05;67.95;95304.38;5077591;28;20211;-72
2023/01/15 02:31:09;;;;;;;16.10;14.60;;;;;;;5.03;68.23;95303.06;5095181;28;20210;-72
2023/01/15 02:33:42;;;;;;;15.88;14.32;;;;;;;5.01;68.30;95303.38;5077825;28;20196;-72
2023/01/15 02:36:15;;;;;;;16.00;14.40;;;;;;;5.05;68.62;95304.38;5077800;28;20235;-71
2023/01/15 02:38:46;;;;;;;15.88;14.35;;;;;;;5.04;68.58;95302.72;5077348;28;20242;-72
2023/01/15 02:41:18;;;;;;;16.38;14.88;;;;;;;5.03;68.63;95301.13;5077619;28;20678;-71
2023/01/15 02:43:54;;;;;;;17.77;15.82;;;;;;;5.01;68.66;95283.41;5095443;28;20207;-71
2023/01/15 02:46:23;;;;;;;20.48;18.08;;;;;;;4.99;68.56;95291.94;5077488;28;20218;-71
2023/01/15 02:48:53;;;;;;;16.58;14.88;;;;;;;5.01;68.09;95292.44;5077158;28;20203;-72
2023/01/15 02:51:24;;;;;;;15.30;13.80;;;;;;;5.02;68.63;95298.72;5077272;28;20220;-71
2023/01/15 02:53:54;;;;;;;16.08;14.48;;;;;;;4.98;68.33;95293.06;5077554;28;20193;-71
2023/01/15 02:56:27;;;;;;;16.40;14.85;;;;;;;4.98;68.43;95293.06;5076821;28;20219;-71
2023/01/15 02:58:59;;;;;;;17.15;15.45;;;;;;;5.01;68.26;95294.34;5094845;28;20200;-71
2023/01/15 03:01:31;;;;;;;17.25;15.60;;;;;;;5.05;68.56;95289.91;5094929;28;20543;-71
2023/01/15 03:04:02;;;;;;;15.75;14.15;;;;;;;5.08;68.12;95289.25;5095003;28;20287;-71
2023/01/15 03:06:37;;;;;;;15.68;14.10;;;;;;;5.11;67.97;95294.09;5094932;28;20192;-71
2023/01/15 03:09:04;;;;;;;15.48;14.05;;;;;;;5.12;67.56;95295.72;5094628;28;20200;-71
2023/01/15 03:11:36;;;;;;;14.63;13.13;;;;;;;5.10;66.95;95295.22;5094862;28;20217;-72
2023/01/15 03:14:09;;;;;;;13.50;12.20;;;;;;;5.08;66.61;95286.50;5094900;28;20193;-71
2023/01/15 03:16:38;;;;;;;13.30;12.05;;;;;;;5.10;66.40;95292.50;5095160;28;20193;-71
2023/01/15 03:19:13;;;;;;;13.68;12.35;;;;;;;5.10;66.11;95284.28;5080408;28;20208;-72
2023/01/15 03:21:47;;;;;;;13.43;12.23;;;;;;;5.09;65.95;95276.41;5082669;28;20226;-71
2023/01/15 03:24:22;;;;;;;14.45;13.13;;;;;;;5.12;66.26;95284.78;5101575;28;20235;-71
2023/01/15 03:26:48;;;;;;;13.95;12.65;;;;;;;5.12;65.99;95282.06;5083624;28;20628;-71
2023/01/15 03:29:19;;;;;;;13.95;12.65;;;;;;;5.11;66.30;95282.34;5100867;28;20204;-71
2023/01/15 03:31:48;;;;;;;13.45;12.15;;;;;;;5.13;66.02;95280.94;5083474;28;20236;-70
2023/01/15 03:34:18;;;;;;;12.50;11.30;;;;;;;5.09;66.07;95279.94;5101229;28;20222;-71
2023/01/15 03:36:46;;;;;;;12.95;11.75;;;;;;;5.06;66.29;95286.03;5100968;28;20201;-71
2023/01/15 03:39:15;;;;;;;13.35;12.05;;;;;;;4.99;66.14;95285.66;5099003;28;20212;-70
2023/01/15 03:41:48;;;;;;;12.48;11.23;;;;;;;4.93;66.30;95298.63;5080419;28;20563;-71
2023/01/15 03:44:29;;;;;;;13.10;11.75;;;;;;;5.00;66.82;95298.22;5080845;28;20204;-71
2023/01/15 03:47:03;;;;;;;13.63;12.27;;;;;;;5.02;66.46;95298.72;5081003;28;20656;-71
2023/01/15 03:49:39;;;;;;;13.50;12.18;;;;;;;5.00;66.72;95292.75;5081360;28;20215;-71
2023/01/15 03:52:13;;;;;;;13.93;12.63;;;;;;;4.92;67.32;95283.38;5080683;28;20232;-70
2023/01/15 03:54:46;;;;;;;14.07;12.68;;;;;;;4.86;67.55;95290.06;5080180;28;20344;-70
2023/01/15 03:57:21;;;;;;;13.77;12.38;;;;;;;4.86;67.39;95290.06;5080275;28;20270;-70
2023/01/15 03:59:52;;;;;;;15.15;13.50;;;;;;;4.87;67.27;95290.91;5081797;28;20559;-71
2023/01/15 04:02:21;;;;;;;13.82;12.43;;;;;;;4.89;67.52;95288.66;5081321;28;20196;-71
2023/01/15 04:04:49;;;;;;;14.43;13.05;;;;;;;4.91;67.05;95289.16;5081712;28;20196;-71
2023/01/15 04:07:18;;;;;;;14.23;12.82;;;;;;;4.89;67.24;95286.72;5097887;28;20529;-71
2023/01/15 04:09:46;;;;;;;13.18;11.88;;;;;;;4.84;67.29;95284.13;5080247;28;20207;-70
2023/01/15 04:12:16;;;;;;;14.20;12.70;;;;;;;4.77;67.88;95283.75;5080066;28;20216;-70
2023/01/15 04:14:45;;;;;;;13.32;11.88;;;;;;;4.83;67.76;95294.25;5080064;28;20290;-70
2023/01/15 04:17:14;;;;;;;12.80;11.45;;;;;;;4.87;67.63;95288.97;5098266;28;20200;-70
2023/01/15 04:19:43;;;;;;;13.60;12.20;;;;;;;4.95;67.22;95288.22;5080238;28;20640;-70
2023/01/15 04:22:11;;;;;;;13.00;11.80;;;;;;;4.98;67.14;95293.06;5098420;28;20200;-71
2023/01/15 04:24:39;;;;;;;13.38;12.07;;;;;;;4.97;67.02;95294.16;5097531;28;20197;-72
2023/01/15 04:27:07;;;;;;;14.60;13.18;;;;;;;5.03;66.74;95294.84;5079714;28;20230;-72
2023/01/15 04:29:34;;;;;;;15.02;13.52;;;;;;;5.07;66.47;95301.31;5098253;28;20197;-75
2023/01/15 04:32:02;;;;;;;15.25;13.75;;;;;;;5.03;66.41;95292.94;5096195;28;20247;-71
2023/01/15 04:34:33;;;;;;;14.82;13.43;;;;;;;4.96;66.64;95300.75;5079347;28;20208;-71
2023/01/15 04:37:01;;;;;;;14.88;13.48;;;;;;;4.98;66.98;95292.25;5096914;28;20209;-71
2023/01/15 04:39:29;;;;;;;14.85;13.35;;;;;;;5.03;66.29;95292.13;5096718;28;20545;-71
2023/01/15 04:44:43;;;;;;;13.30;12.00;;;;;;;5.01;65.85;95286.97;5079258;28;20299;-71
2023/01/15 04:47:14;;;;;;;12.95;11.70;;;;;;;4.99;65.65;95291.94;5079020;28;20200;-71
2023/01/15 04:49:43;;;;;;;12.90;11.73;;;;;;;5.02;65.76;95294.06;5079497;28;20220;-71
2023/01/15 04:52:10;;;;;;;13.75;12.45;;;;;;;5.05;65.61;95293.44;5096431;28;20232;-71
2023/01/15 04:54:38;;;;;;;14.40;13.00;;;;;;;4.90;65.85;95306.66;5088337;28;20203;-71
2023/01/15 04:57:06;;;;;;;13.80;12.43;;;;;;;4.86;66.37;95295.53;5096574;28;20228;-71
2023/01/15 04:59:34;;;;;;;14.95;13.45;;;;;;;4.88;66.04;95301.50;5096597;28;20188;-71
2023/01/15 05:02:03;;;;;;;14.50;13.07;;;;;;;4.84;66.51;95297.78;5096393;28;20208;-72
2023/01/15 05:04:31;;;;;;;15.02;13.63;;;;;;;4.79;66.81;95293.25;5078601;28;20284;-71
2023/01/15 05:07:01;;;;;;;15.77;14.27;;;;;;;4.76;66.35;95293.88;5078383;28;20211;-72
2023/01/15 05:09:27;;;;;;;15.18;13.70;;;;;;;4.72;66.72;95298.34;5078819;28;20211;-71
2023/01/15 05:11:56;;;;;;;17.15;14.77;;;;;;;4.68;66.92;95302.78;5078482;28;20220;-71
2023/01/15 05:14:24;;;;;;;16.40;14.80;;;;;;;4.64;66.95;95301.00;5077980;28;20212;-71
2023/01/15 05:16:52;;;;;;;15.20;13.75;;;;;;;4.59;67.01;95307.41;5095835;28;20197;-71
2023/01/15 05:19:20;;;;;;;16.30;14.70;;;;;;;4.50;67.05;95301.88;5096269;28;20203;-72
2023/01/15 05:21:47;;;;;;;17.50;15.73;;;;;;;4.45;67.54;95301.16;5077963;28;20663;-72
2023/01/15 05:24:17;;;;;;;17.27;15.57;;;;;;;4.42;67.68;95305.31;5078353;28;20210;-72
2023/01/15 05:26:45;;;;;;;17.83;15.95;;;;;;;4.35;67.78;95307.66;5077615;28;20211;-72
2023/01/15 05:29:14;;;;;;;18.83;16.88;;;;;;;4.28;67.90;95304.53;5095697;28;20207;-71
2023/01/15 05:31:43;;;;;;;20.27;18.23;;;;;;;4.22;68.14;95300.34;5095921;28;20219;-71
2023/01/15 05:34:12;;;;;;;20.58;18.58;;;;;;;4.17;68.26;95308.63;5078173;28;20211;-71
2023/01/15 05:36:41;;;;;;;20.83;18.73;;;;;;;4.15;68.30;95311.66;5079972;28;20196;-71
2023/01/15 05:39:09;;;;;;;20.45;18.42;;;;;;;4.11;68.47;95307.94;5080932;28;20207;-71
2023/01/15 05:41:52;;;;;;;17.67;15.98;;;;;;;4.07;68.73;95313.19;5099094;28;20215;-71
2023/01/15 05:44:23;;;;;;;17.73;16.02;;;;;;;3.99;68.57;95310.38;5098844;28;20192;-71
2023/01/15 05:46:52;;;;;;;18.52;16.63;;;;;;;3.91;68.98;95311.09;5080163;28;20705;-71
2023/01/15 05:49:24;;;;;;;19.23;17.42;;;;;;;3.82;69.45;95319.19;5078238;28;20205;-72
2023/01/15 05:51:53;;;;;;;19.15;17.25;;;;;;;3.81;69.63;95312.09;5096196;28;20212;-71
2023/01/15 05:54:22;;;;;;;21.67;19.50;;;;;;;3.82;70.22;95313.72;5102353;28;20197;-71
2023/01/15 05:56:52;;;;;;;22.83;20.50;;;;;;;3.86;69.65;95315.53;5082647;28;20243;-70
2023/01/15 05:59:23;;;;;;;22.27;19.98;;;;;;;3.94;69.13;95322.19;5080382;28;20200;-71
2023/01/15 06:01:53;;;;;;;21.95;19.67;;;;;;;3.91;69.32;95322.00;5097807;28;20192;-70
2023/01/15 06:04:24;;;;;;;22.05;19.77;;;;;;;3.85;68.91;95319.38;5079916;28;20200;-70
2023/01/15 06:06:56;;;;;;;24.17;21.67;;;;;;;3.85;69.59;95327.56;5079423;28;20200;-70
2023/01/15 06:09:26;;;;;;;23.48;20.95;;;;;;;3.86;69.17;95326.44;5097260;28;20197;-71
2023/01/15 06:11:58;;;;;;;23.35;20.85;;;;;;;3.79;69.45;95322.50;5079039;28;20224;-70
2023/01/15 06:14:26;;;;;;;21.02;19.00;;;;;;;3.74;69.20;95322.59;5080834;28;20222;-70
2023/01/15 06:16:54;;;;;;;20.77;18.73;;;;;;;3.80;69.26;95321.41;5080892;28;20192;-71
2023/01/15 06:19:22;;;;;;;20.50;18.50;;;;;;;3.78;69.56;95316.25;5095300;28;20249;-72
2023/01/15 06:21:50;;;;;;;19.77;17.85;;;;;;;3.74;69.47;95319.88;5095032;28;20196;-71
2023/01/15 06:24:18;;;;;;;19.42;17.42;;;;;;;3.69;69.48;95311.81;5094990;28;20193;-71
2023/01/15 06:26:47;;;;;;;19.52;17.58;;;;;;;3.67;69.22;95316.75;5095433;28;20192;-71
2023/01/15 06:29:19;;;;;;;17.90;16.20;;;;;;;3.68;69.34;95313.72;5077655;28;20204;-71
2023/01/15 06:31:50;;;;;;;19.33;17.33;;;;;;;3.68;69.45;95308.28;5079002;28;20554;-71
2023/01/15 06:34:19;;;;;;;20.40;18.38;;;;;;;3.75;69.80;95314.13;5077617;28;20259;-71
2023/01/15 06:36:47;;;;;;;21.70;19.40;;;;;;;3.88;70.38;95317.94;5095190;28;20192;-71
2023/01/15 06:39:17;;;;;;;21.70;19.30;;;;;;;3.89;69.64;95316.06;5095232;28;20208;-71
2023/01/15 06:47:23;;;;;;;19.77;17.52;;;;;;;4.02;69.67;95317.94;5095393;28;20184;-75
2023/01/15 06:49:53;;;;;;;18.92;16.67;;;;;;;4.05;69.22;95318.16;5095430;28;20227;-72
2023/01/15 06:52:19;;;;;;;17.90;16.05;;;;;;;4.10;68.86;95311.75;5094725;28;20224;-72
2023/01/15 06:54:47;;;;;;;22.00;19.38;;;;;;;4.13;68.96;95316.59;5094948;28;20209;-72
2023/01/15 06:57:17;;;;;;;23.33;18.58;;;;;;;4.24;68.77;95317.19;5080311;28;20228;-73
2023/01/15 06:59:47;;;;;;;21.02;18.10;;;;;;;4.27;69.51;95317.41;5081385;28;20192;-72
2023/01/15 07:02:16;;;;;;;19.77;17.23;;;;;;;4.26;69.46;95310.31;5098799;28;20242;-72
2023/01/15 07:04:45;;;;;;;21.55;18.40;;;;;;;4.32;69.41;95316.47;5080845;28;20204;-72
2023/01/15 07:07:15;;;;;;;23.48;20.17;;;;;;;4.35;69.30;95310.41;5080549;28;20262;-72
2023/01/15 07:09:44;;;;;;;24.33;20.73;;;;;;;4.45;68.94;95318.38;5098503;28;20723;-72
2023/01/15 07:12:12;;;;;;;23.05;20.55;;;;;;;4.50;68.96;95314.69;5098661;28;20208;-72
2023/01/15 07:14:40;;;;;;;26.35;22.27;;;;;;;4.54;69.09;95313.00;5098555;28;20200;-72
2023/01/15 07:17:09;;;;;;;24.73;22.08;;;;;;;4.55;69.30;95325.53;5080650;28;20204;-72
2023/01/15 07:19:37;;;;;;;24.60;22.00;;;;;;;4.59;69.28;95321.06;5098170;28;20203;-72
2023/01/15 07:22:05;;;;;;;23.95;21.38;;;;;;;4.64;69.01;95322.84;5080567;28;20196;-72
2023/01/15 07:24:34;;;;;;;25.23;22.58;;;;;;;4.67;68.83;95323.06;5080670;28;20362;-72
2023/01/15 07:27:02;;;;;;;24.85;22.25;;;;;;;4.70;69.03;95318.91;5080415;28;20211;-72
2023/01/15 07:29:30;;;;;;;24.60;22.10;;;;;;;4.74;69.13;95331.63;5080186;28;20601;-72
2023/01/15 07:31:59;;;;;;;26.38;22.63;;;;;;;4.76;69.01;95334.88;5098107;28;20660;-72
2023/01/15 07:34:28;;;;;;;22.83;20.27;;;;;;;4.82;69.11;95332.81;5080866;28;20596;-73
2023/01/15 07:36:56;;;;;;;23.25;20.90;;;;;;;4.86;68.61;95336.53;5080496;28;20195;-72
2023/01/15 07:39:25;;;;;;;21.85;19.52;;;;;;;4.85;68.54;95342.31;5098106;28;20205;-71
2023/01/15 07:50:24;;;;;;;19.17;17.00;;;;;;;5.21;66.83;95331.31;5097937;28;20177;-72
2023/01/15 07:52:52;;;;;;;16.42;14.73;;;;;;;5.26;66.35;95326.50;5079838;28;20231;-71
2023/01/15 07:55:19;;;;;;;18.63;16.63;;;;;;;5.38;66.32;95316.94;5079985;28;20235;-71
2023/01/15 07:57:45;;;;;;;18.48;15.55;;;;;;;5.53;65.54;95322.81;5080088;28;20240;-71
2023/01/15 08:00:16;;;;;;;15.25;13.65;;;;;;;5.72;65.08;95313.56;5098003;28;20189;-72
2023/01/15 08:02:44;;;;;;;16.98;13.38;;;;;;;5.90;64.27;95317.97;5080265;28;20626;-72
2023/01/15 08:05:13;;;;;;;11.18;9.98;;;;;;;6.01;63.52;95311.09;5079609;28;20537;-72
2023/01/15 08:07:43;;;;;;;10.73;9.63;;;;;;;6.13;63.37;95304.22;5079201;28;20522;-72
2023/01/15 08:10:12;;;;;;;9.13;8.27;;;;;;;6.19;61.70;95302.94;5079822;28;20202;-72
2023/01/15 08:15:46;;;;;;;8.40;7.60;;;;;;;6.38;61.20;95317.16;5097450;28;20181;-72
2023/01/15 08:18:13;;;;;;;7.88;7.18;;;;;;;6.40;60.82;95317.66;5079560;28;20204;-72
2023/01/15 08:20:41;;;;;;;8.15;7.43;;;;;;;6.41;60.02;95327.47;5097424;28;20204;-72
2023/01/15 08:23:14;;;;;;;7.85;7.15;;;;;;;6.45;61.30;95333.13;5079696;28;20197;-72
2023/01/15 08:25:42;;;;;;;8.02;7.22;;;;;;;6.50;60.43;95330.25;5097237;28;20220;-72
2023/01/15 08:28:12;;;;;;;8.00;7.20;;;;;;;6.54;60.35;95325.72;5097485;28;20208;-72
2023/01/15 08:30:41;;;;;;;8.43;7.47;;;;;;;6.58;60.37;95323.94;5079685;28;20571;-72
2023/01/15 08:33:10;;;;;;;8.23;7.47;;;;;;;6.76;60.77;95327.50;5079498;28;20227;-72
2023/01/15 08:35:38;;;;;;;7.20;6.50;;;;;;;6.78;58.84;95324.44;5079879;28;20200;-73
2023/01/15 08:38:06;;;;;;;6.80;6.10;;;;;;;6.90;58.55;95327.31;5079430;28;20204;-72
2023/01/15 08:40:57;;;;;;;7.82;6.53;;;;;;;7.01;58.46;95320.41;5079546;28;20317;-71
2023/01/15 08:43:28;;;;;;;7.35;6.65;;;;;;;7.08;58.23;95328.13;5079381;28;20210;-73
2023/01/15 08:45:57;;;;;;;7.65;6.95;;;;;;;7.04;57.80;95318.94;5078983;28;20631;-72
2023/01/15 08:48:26;;;;;;;9.27;8.23;;;;;;;7.07;57.94;95326.53;5079234;28;20267;-72
2023/01/15 08:50:54;;;;;;;7.65;6.85;;;;;;;7.14;57.72;95324.91;5079439;28;20667;-73
2023/01/15 08:53:23;;;;;;;8.95;8.07;;;;;;;7.16;56.67;95322.66;5096847;28;20212;-73
2023/01/15 08:55:53;;;;;;;8.27;7.50;;;;;;;7.21;56.87;95316.19;5096471;28;20200;-72
2023/01/15 08:58:20;;;;;;;7.60;6.90;;;;;;;7.33;57.14;95319.06;5078770;28;20568;-73
2023/01/15 09:00:48;;;;;;;8.15;7.10;;;;;;;7.42;56.90;95319.84;5096535;28;20215;-72
2023/01/15 09:03:16;;;;;;;7.70;7.00;;;;;;;7.41;56.28;95314.69;5078872;28;20199;-72
2023/01/15 09:05:44;;;;;;;7.43;6.72;;;;;;;7.34;55.09;95325.38;5079142;28;20265;-72
2023/01/15 09:08:12;;;;;;;8.90;7.97;;;;;;;7.29;56.59;95317.28;5078771;28;20211;-72
2023/01/15 09:10:40;;;;;;;9.80;8.90;;;;;;;7.29;56.42;95320.84;5078600;28;20204;-72
2023/01/15 09:13:10;;;;;;;9.10;8.20;;;;;;;7.32;56.83;95311.16;5078123;28;20224;-71
2023/01/15 09:15:38;;;;;;;9.55;8.65;;;;;;;7.36;56.81;95306.63;5078684;28;20215;-73
2023/01/15 09:18:09;;;;;;;11.65;10.55;;;;;;;7.43;57.42;95312.41;5095771;28;20200;-72
2023/01/15 09:20:37;;;;;;;12.73;11.43;;;;;;;7.41;56.82;95303.72;5078505;28;20556;-71
2023/01/15 09:23:05;;;;;;;16.35;14.60;;;;;;;7.38;56.92;95305.16;5078673;28;20211;-73
2023/01/15 09:25:33;;;;;;;17.52;14.43;;;;;;;7.36;57.22;95299.19;5078548;28;20200;-72
2023/01/15 09:28:01;;;;;;;16.17;14.10;;;;;;;7.31;57.78;95301.31;5078532;28;20257;-72
2023/01/15 09:30:30;;;;;;;15.38;13.40;;;;;;;7.26;57.34;95298.72;5078189;28;20202;-72
2023/01/15 09:32:59;;;;;;;15.45;13.85;;;;;;;7.19;57.14;95286.34;5078407;28;20255;-72
2023/01/15 09:35:28;;;;;;;15.00;13.35;;;;;;;7.17;57.17;95288.59;5078432;28;20653;-71
2023/01/15 09:37:56;;;;;;;14.68;13.15;;;;;;;7.07;57.61;95280.69;5095949;28;20228;-71
2023/01/15 09:40:40;;;;;;;14.90;13.30;;;;;;;7.04;57.42;95281.34;5095991;28;20196;-72
2023/01/15 09:43:15;;;;;;;14.25;12.85;;;;;;;7.03;57.65;95278.94;5095843;28;20196;-71
2023/01/15 09:45:49;;;;;;;13.07;11.30;;;;;;;7.04;57.34;95277.78;5078332;28;20208;-73
2023/01/15 09:48:28;;;;;;;14.50;12.40;;;;;;;7.05;57.94;95272.00;5078340;28;20192;-73
2023/01/15 09:51:04;;;;;;;12.48;11.20;;;;;;;7.08;57.45;95259.56;5077916;28;20564;-72
2023/01/15 09:54:12;;;;;;;12.52;11.20;;;;;;;7.08;57.59;95265.88;5078153;28;20228;-72
2023/01/15 09:56:40;;;;;;;11.80;10.52;;;;;;;7.13;56.86;95251.16;5083640;28;20212;-71
2023/01/15 09:59:20;;;;;;;11.85;10.65;;;;;;;7.11;57.44;95251.47;5077770;28;20203;-72
2023/01/15 10:01:50;;;;;;;13.32;11.48;;;;;;;7.10;57.17;95249.06;5078176;28;20200;-72
2023/01/15 10:04:30;;;;;;;12.50;11.20;;;;;;;7.11;57.35;95242.44;5095583;28;20203;-72
2023/01/15 10:07:05;;;;;;;13.43;11.88;;;;;;;7.07;57.29;95231.31;5077705;28;20212;-72
2023/01/15 10:09:36;;;;;;;12.77;10.68;;;;;;;7.04;57.46;95229.22;5077971;28;20221;-72
2023/01/15 10:15:09;;;;;;;12.48;11.18;;;;;;;7.09;57.45;95215.38;5077449;28;20682;-72
2023/01/15 10:17:41;;;;;;;12.52;11.23;;;;;;;7.08;57.63;95215.66;5078063;28;20260;-72
2023/01/15 10:20:17;;;;;;;13.40;11.70;;;;;;;7.08;57.76;95211.03;5077282;28;20200;-73
2023/01/15 10:22:59;;;;;;;13.38;11.93;;;;;;;7.10;57.63;95208.75;5095341;28;20184;-73
2023/01/15 10:25:36;;;;;;;15.02;12.55;;;;;;;7.13;58.11;95202.59;5077335;28;20204;-72
2023/01/15 10:28:16;;;;;;;15.27;13.07;;;;;;;7.12;57.83;95201.00;5095008;28;20502;-73
2023/01/15 10:30:47;;;;;;;17.08;12.82;;;;;;;7.13;57.87;95197.13;5078506;28;20257;-72
2023/01/15 10:33:35;;;;;;;14.65;13.02;;;;;;;7.24;58.34;95189.34;5081709;28;20247;-72
2023/01/15 10:36:06;;;;;;;15.45;13.82;;;;;;;7.29;57.79;95191.09;5082759;28;20287;-72
2023/01/15 10:38:41;;;;;;;17.23;14.73;;;;;;;7.64;57.91;95178.00;5100609;28;20185;-73
2023/01/15 10:41:30;;;;;;;18.05;16.15;;;;;;;8.11;56.37;95177.88;5081974;28;20256;-72
2023/01/15 10:44:03;;;;;;;19.23;16.10;;;;;;;8.43;55.96;95163.41;5100257;28;20181;-72
2023/01/15 10:46:36;;;;;;;18.90;16.33;;;;;;;8.89;55.07;95164.25;5082293;28;20632;-72
2023/01/15 10:49:13;;;;;;;18.50;16.65;;;;;;;8.97;53.92;95153.50;5082450;28;20249;-72
2023/01/15 10:51:44;;;;;;;19.40;17.33;;;;;;;8.84;53.53;95156.22;5083091;28;20200;-73
2023/01/15 10:54:19;;;;;;;17.15;15.30;;;;;;;8.95;54.05;95142.84;5082906;28;20277;-72
2023/01/15 10:56:52;;;;;;;18.52;15.65;;;;;;;8.86;52.88;95140.19;5082876;28;20318;-73
2023/01/15 10:59:23;;;;;;;15.43;13.82;;;;;;;8.62;53.93;95138.19;5082642;28;20235;-73
2023/01/15 11:01:55;;;;;;;15.80;14.10;;;;;;;8.42;53.91;95136.25;5083340;28;20287;-73
2023/01/15 11:04:31;;;;;;;16.48;14.63;;;;;;;8.37;54.16;95130.94;5100268;28;20185;-74
2023/01/15 11:07:02;;;;;;;14.95;13.48;;;;;;;8.25;54.25;95128.97;5100691;28;20180;-74
2023/01/15 11:09:33;;;;;;;14.00;12.60;;;;;;;8.20;54.78;95127.19;5100107;28;20253;-74
2023/01/15 11:20:36;;;;;;;13.23;11.90;;;;;;;9.33;52.75;95109.53;5100166;28;20184;-74
2023/01/15 11:23:10;;;;;;;14.40;12.75;;;;;;;9.55;51.39;95100.00;5100504;28;20185;-73
2023/01/15 11:25:47;;;;;;;13.38;12.07;;;;;;;9.87;51.49;95103.72;5101529;28;20577;-73
2023/01/15 11:28:14;;;;;;;13.05;11.38;;;;;;;10.27;50.19;95099.41;5100037;28;20195;-73
2023/01/15 11:30:53;;;;;;;13.88;12.43;;;;;;;10.45;49.33;95095.19;5100977;28;20192;-73
2023/01/15 11:33:30;;;;;;;12.80;11.57;;;;;;;10.65;48.74;95093.41;5082998;28;20208;-73
2023/01/15 11:36:02;;;;;;;12.55;11.30;;;;;;;10.65;48.28;95087.88;5083424;28;20206;-72
2023/01/15 11:38:32;;;;;;;12.88;11.60;;;;;;;10.81;47.38;95088.69;5099482;28;20220;-72
2023/01/15 11:41:04;;;;;;;12.98;11.77;;;;;;;10.94;48.06;95081.16;5099841;28;20267;-73
2023/01/15 11:52:09;;;;;;;13.40;12.05;;;;;;;11.70;45.54;95068.00;5082414;28;20349;-72
2023/01/15 11:54:44;;;;;;;14.43;12.95;;;;;;;11.67;46.88;95068.72;5100113;28;20201;-72
2023/01/15 11:57:14;;;;;;;13.40;12.02;;;;;;;11.83;46.10;95060.38;5082032;28;20719;-73
2023/01/15 11:59:49;;;;;;;14.20;12.70;;;;;;;11.95;46.40;95059.50;5100088;28;20181;-73
2023/01/15 12:02:28;;;;;;;14.70;13.23;;;;;;;12.26;45.04;95059.38;5082329;28;20200;-72
2023/01/15 12:04:59;;;;;;;13.40;12.10;;;;;;;12.33;45.12;95057.91;5099947;28;20204;-72
2023/01/15 12:07:29;;;;;;;14.88;13.07;;;;;;;13.04;43.87;95047.41;5099777;28;20215;-73
2023/01/15 12:10:18;;;;;;;13.07;11.77;;;;;;;13.38;42.07;95051.94;5099721;28;20176;-72
2023/01/15 12:12:57;;;;;;;13.40;12.10;;;;;;;13.87;41.59;95045.56;5098898;28;20203;-73
2023/01/15 12:15:33;;;;;;;12.68;11.48;;;;;;;13.92;40.81;95048.00;5065500;28;20287;-73
2023/01/15 12:18:32;;;;;;;13.05;11.77;;;;;;;14.87;38.97;95032.91;5099354;28;20237;-72
2023/01/15 12:21:04;;;;;;;16.33;13.40;;;;;;;15.49;37.98;95032.28;5081369;28;20201;-73
2023/01/15 12:24:01;;;;;;;13.90;12.55;;;;;;;15.67;37.21;95031.66;5081819;28;20244;-73
2023/01/15 12:26:32;;;;;;;13.20;11.98;;;;;;;14.64;38.02;95024.75;5079160;28;20211;-73
2023/01/15 12:29:07;;;;;;;13.23;11.93;;;;;;;13.80;40.03;95026.06;5082620;28;20200;-73